Robbins, Illinois
Current Conditions -  °F | °C
As of 3:53 PM on Friday 31 Oct 2014 (Local Time) from KMDW Reporting Station
Light Snow Light Snow  
Wind Chill: 28°   Ceiling: 3600
Heat Index: 40°   Visibility: 7mi
Dew Point: 26°   Wind: 32mph
Humidity: 58%   Direction: 350°N
Pressure: 30.21"   Gusts: 44mph
Location:  41.64°N, 87.7°W
Report Text: KMDW 312053Z 35028G38KT 7SM -SN FEW027 OVC036 04/M03 A3021 RMK AO2 PK WND 35038/2050 SLP235 P0000 60000 T00441033 53026
Loading
Personal Weather Stations






























Interactive Weather Map
Tropical Storm Tracking
New forecast layout! Learn more

10-Day Weather Forecast

Advertisements
Track Severe Weather on mobile